Time;durP1;ratioP1;P1;durP2;ratioP2;P2;SDS_P1;SDS_P2;PMS_P1;PMS_P2;Temp;Humidity;BMP_temperature;BMP_pressure;BME280_temperature;BME280_humidity;BME280_pressure;Samples;Min_cycle;Max_cycle;Signal;HPM_P1;HPM_P2
2023/06/24 00:02:31;;;;;;;;;;;;;;;20.69;56.82;100843.47;5044250;28;4406;-73
2023/06/24 00:05:23;;;;;;;;;;;;;;;20.67;56.76;100839.38;5042330;28;4993;-73
2023/06/24 00:08:15;;;;;;;;;;;;;;;20.67;57.11;100842.91;5048804;28;4850;-75
2023/06/24 00:11:07;;;;;;;;;;;;;;;20.66;56.69;100845.94;5044471;28;4828;-73
2023/06/24 00:13:59;;;;;;;;;;;;;;;20.64;56.96;100848.97;5047425;28;5203;-76
2023/06/24 00:16:51;;;;;;;;;;;;;;;20.63;56.84;100844.59;5043046;28;4836;-73
2023/06/24 00:19:44;;;;;;;;;;;;;;;20.62;56.99;100846.50;5044675;28;4890;-74
2023/06/24 00:22:36;;;;;;;;;;;;;;;20.60;56.77;100843.22;5045944;28;4895;-72
2023/06/24 00:25:28;;;;;;;;;;;;;;;20.60;56.77;100839.69;5046149;28;4744;-74
2023/06/24 00:28:20;;;;;;;;;;;;;;;20.57;56.71;100832.84;5049611;28;4532;-74
2023/06/24 00:31:12;;;;;;;;;;;;;;;20.57;56.87;100837.50;5043737;28;4365;-74
2023/06/24 00:34:04;;;;;;;;;;;;;;;20.55;56.71;100835.03;5043964;28;5503;-74
2023/06/24 00:36:56;;;;;;;;;;;;;;;20.55;56.61;100836.97;5044550;28;4667;-73
2023/06/24 00:39:48;;;;;;;;;;;;;;;20.55;56.79;100845.16;5044311;28;4670;-73
2023/06/24 00:42:40;;;;;;;;;;;;;;;20.53;57.00;100847.34;5045350;28;5020;-75
2023/06/24 00:45:32;;;;;;;;;;;;;;;20.51;56.98;100853.09;5046431;28;4603;-74
2023/06/24 00:48:24;;;;;;;;;;;;;;;20.51;56.77;100850.34;5052071;28;5483;-75
2023/06/24 00:51:16;;;;;;;;;;;;;;;20.50;56.92;100850.63;5052457;28;4338;-76
2023/06/24 00:54:08;;;;;;;;;;;;;;;20.47;57.02;100849.28;5052392;28;4551;-75
2023/06/24 00:57:00;;;;;;;;;;;;;;;20.47;56.63;100849.28;5046532;28;4531;-75
2023/06/24 00:59:53;;;;;;;;;;;;;;;20.46;56.82;100847.63;5044356;28;5423;-75
2023/06/24 01:02:44;;;;;;;;;;;;;;;20.46;56.61;100852.28;5032416;28;5044;-74
2023/06/24 01:05:38;;;;;;;;;;;;;;;20.44;56.70;100855.28;5031505;28;4900;-73
2023/06/24 01:08:29;;;;;;;;;;;;;;;20.43;56.88;100861.84;5031591;28;4897;-74
2023/06/24 01:11:21;;;;;;;;;;;;;;;20.43;56.83;100864.59;5031875;28;4785;-75
2023/06/24 01:14:13;;;;;;;;;;;;;;;20.39;56.75;100856.13;5033524;28;4686;-73
2023/06/24 01:17:06;;;;;;;;;;;;;;;20.41;56.75;100853.94;5031234;28;4897;-73
2023/06/24 01:19:57;;;;;;;;;;;;;;;20.38;56.63;100849.03;5031522;28;4816;-74
2023/06/24 01:22:48;;;;;;;;;;;;;;;20.37;56.43;100858.31;5031887;28;5235;-73
2023/06/24 01:25:40;;;;;;;;;;;;;;;20.37;56.72;100858.31;5030275;28;4479;-74
2023/06/24 01:28:32;;;;;;;;;;;;;;;20.35;56.45;100866.00;5032151;28;4847;-75
2023/06/24 01:31:24;;;;;;;;;;;;;;;20.34;56.47;100860.78;5032001;28;4895;-74
2023/06/24 01:34:16;;;;;;;;;;;;;;;20.32;56.48;100861.06;5032510;28;4609;-74
2023/06/24 01:37:08;;;;;;;;;;;;;;;20.31;56.78;100870.38;5031441;28;5639;-73
2023/06/24 01:40:00;;;;;;;;;;;;;;;20.30;56.46;100868.75;5030576;28;5326;-75
2023/06/24 01:42:52;;;;;;;;;;;;;;;20.29;56.71;100877.22;5027049;28;4744;-73
2023/06/24 01:45:44;;;;;;;;;;;;;;;20.29;56.68;100877.22;5029980;28;4693;-74
2023/06/24 01:48:36;;;;;;;;;;;;;;;20.27;56.61;100879.41;5030576;28;5450;-74
2023/06/24 01:51:28;;;;;;;;;;;;;;;20.25;56.57;100876.13;5028802;28;5136;-74
2023/06/24 01:54:22;;;;;;;;;;;;;;;20.25;56.60;100881.59;5028712;28;4631;-75
2023/06/24 01:57:13;;;;;;;;;;;;;;;20.24;56.52;100879.97;5030955;28;5303;-75
2023/06/24 02:00:07;;;;;;;;;;;;;;;20.23;56.58;100886.53;5030480;28;4975;-74
2023/06/24 02:02:58;;;;;;;;;;;;;;;20.22;56.55;100877.50;5028436;28;4725;-74
2023/06/24 02:05:50;;;;;;;;;;;;;;;20.19;56.27;100878.06;5028606;28;4893;-75
2023/06/24 02:08:42;;;;;;;;;;;;;;;20.18;56.47;100876.44;5026830;28;4949;-73
2023/06/24 02:11:34;;;;;;;;;;;;;;;20.17;56.25;100882.97;5016911;28;4832;-74
2023/06/24 02:14:26;;;;;;;;;;;;;;;20.17;56.46;100880.22;5018253;28;4662;-75
2023/06/24 02:17:18;;;;;;;;;;;;;;;19.73;56.50;100823.44;5018184;28;4246;-73
2023/06/24 02:20:10;;;;;;;;;;;;;;;20.14;56.18;100883.53;5021930;28;4634;-73
2023/06/24 02:23:02;;;;;;;;;;;;;;;20.12;56.35;100888.47;5019805;28;5400;-73
2023/06/24 02:25:54;;;;;;;;;;;;;;;20.11;56.37;100886.81;5018357;28;5210;-75
2023/06/24 02:28:46;;;;;;;;;;;;;;;19.71;56.22;100818.25;5018445;28;5398;-76
2023/06/24 02:31:38;;;;;;;;;;;;;;;20.09;56.09;100886.25;5017753;28;4512;-74
2023/06/24 02:34:30;;;;;;;;;;;;;;;20.09;56.23;100883.53;5025928;28;4430;-74
2023/06/24 02:37:22;;;;;;;;;;;;;;;20.07;55.97;100886.53;5016640;28;4861;-75
2023/06/24 02:40:14;;;;;;;;;;;;;;;20.07;56.26;100899.41;5016605;28;4939;-74
2023/06/24 02:43:06;;;;;;;;;;;;;;;20.04;56.13;100891.75;5017615;28;4850;-75
2023/06/24 02:45:58;;;;;;;;;;;;;;;20.04;56.08;100903.50;5020514;28;5124;-75
2023/06/24 02:48:50;;;;;;;;;;;;;;;20.02;56.41;100897.47;5020123;28;4564;-75
2023/06/24 02:51:42;;;;;;;;;;;;;;;20.01;56.29;100905.97;5019748;28;4773;-73
2023/06/24 02:54:34;;;;;;;;;;;;;;;20.00;56.30;100912.50;5017526;28;4792;-75
2023/06/24 02:57:26;;;;;;;;;;;;;;;19.99;56.02;100905.41;5019081;28;4949;-76
2023/06/24 03:00:18;;;;;;;;;;;;;;;19.99;56.01;100902.69;5020218;28;4954;-75
2023/06/24 03:03:10;;;;;;;;;;;;;;;19.95;55.81;100903.22;5026932;28;4834;-74
2023/06/24 03:06:03;;;;;;;;;;;;;;;19.94;56.18;100907.06;5019899;28;4921;-75
2023/06/24 03:08:54;;;;;;;;;;;;;;;19.94;55.86;100915.25;5017745;28;4668;-75
2023/06/24 03:11:46;;;;;;;;;;;;;;;19.94;56.08;100914.41;5021442;28;5267;-75
2023/06/24 03:14:38;;;;;;;;;;;;;;;19.92;56.16;100911.16;5017971;28;5412;-75
2023/06/24 03:17:30;;;;;;;;;;;;;;;19.90;55.86;100905.13;5024034;28;5195;-75
2023/06/24 03:20:24;;;;;;;;;;;;;;;19.90;55.84;100907.88;5016097;28;5435;-75
2023/06/24 03:23:15;;;;;;;;;;;;;;;19.89;56.07;100911.72;5017179;28;4408;-76
2023/06/24 03:26:08;;;;;;;;;;;;;;;19.90;55.81;100913.34;5017262;28;4631;-75
2023/06/24 03:29:00;;;;;;;;;;;;;;;19.89;55.76;100914.44;5020077;28;4562;-74
2023/06/24 03:31:52;;;;;;;;;;;;;;;19.87;55.80;100919.34;5017814;28;4653;-76
2023/06/24 03:34:44;;;;;;;;;;;;;;;19.87;55.61;100916.63;5016556;28;5356;-75
2023/06/24 03:37:36;;;;;;;;;;;;;;;19.87;55.54;100920.16;5019486;28;4787;-73
2023/06/24 03:40:28;;;;;;;;;;;;;;;19.85;55.83;100921.53;5021937;28;4897;-74
2023/06/24 03:43:20;;;;;;;;;;;;;;;19.85;55.85;100932.47;5017365;28;4618;-75
2023/06/24 03:46:12;;;;;;;;;;;;;;;19.83;55.74;100934.66;5015855;28;4447;-74
2023/06/24 03:49:04;;;;;;;;;;;;;;;19.87;55.66;100928.38;5020787;28;4749;-76
2023/06/24 03:51:56;;;;;;;;;;;;;;;19.82;55.41;100939.28;5016952;28;4878;-73
2023/06/24 03:54:48;;;;;;;;;;;;;;;19.81;55.69;100939.56;5018466;28;4695;-76
2023/06/24 03:57:40;;;;;;;;;;;;;;;19.82;55.35;100942.03;5016189;28;4552;-73
2023/06/24 04:00:32;;;;;;;;;;;;;;;19.99;55.19;100943.69;5017074;28;4847;-77
2023/06/24 04:03:25;;;;;;;;;;;;;;;19.61;54.61;100888.41;5017423;28;4515;-73
2023/06/24 04:06:17;;;;;;;;;;;;;;;19.85;55.18;100946.94;5017221;28;4597;-73
2023/06/24 04:09:09;;;;;;;;;;;;;;;20.20;54.20;100950.78;5020911;28;5689;-74
2023/06/24 04:12:01;;;;;;;;;;;;;;;19.99;54.99;100960.09;5022079;28;5333;-74
2023/06/24 04:14:53;;;;;;;;;;;;;;;19.94;54.96;100958.16;5016705;28;4844;-74
2023/06/24 04:17:45;;;;;;;;;;;;;;;20.11;54.52;100955.97;5021901;28;4303;-76
2023/06/24 04:20:37;;;;;;;;;;;;;;;20.15;53.98;100959.81;5021265;28;4972;-75
2023/06/24 04:23:29;;;;;;;;;;;;;;;20.04;54.51;100954.63;5021549;28;4476;-74
2023/06/24 04:26:21;;;;;;;;;;;;;;;20.12;53.92;100962.28;5020056;28;5269;-74
2023/06/24 04:29:13;;;;;;;;;;;;;;;20.23;53.79;100966.63;5020852;28;4622;-76
2023/06/24 04:32:05;;;;;;;;;;;;;;;20.18;53.88;100967.47;5018709;28;4958;-73
2023/06/24 04:34:57;;;;;;;;;;;;;;;20.02;54.41;100967.75;5019591;28;4957;-73
2023/06/24 04:37:50;;;;;;;;;;;;;;;19.97;54.53;100968.53;5021380;28;4741;-75
2023/06/24 04:40:41;;;;;;;;;;;;;;;19.85;54.47;100968.00;5020590;28;4435;-75
2023/06/24 04:43:35;;;;;;;;;;;;;;;19.89;54.52;100975.38;5022332;28;4108;-74
2023/06/24 04:46:27;;;;;;;;;;;;;;;19.89;54.56;100980.03;5025929;28;4656;-75
2023/06/24 04:49:18;;;;;;;;;;;;;;;19.87;54.46;100983.03;5023577;28;4863;-75
2023/06/24 04:52:10;;;;;;;;;;;;;;;19.85;54.71;100978.91;5022822;28;4540;-73
2023/06/24 04:55:02;;;;;;;;;;;;;;;19.98;54.00;100988.53;5023497;28;4519;-75
2023/06/24 04:57:54;;;;;;;;;;;;;;;19.93;54.48;100989.31;5023478;28;4706;-75
2023/06/24 05:00:46;;;;;;;;;;;;;;;19.80;54.43;100993.41;5019651;28;4644;-74
2023/06/24 05:03:38;;;;;;;;;;;;;;;19.84;54.56;100991.78;5016176;28;5331;-75
2023/06/24 05:06:30;;;;;;;;;;;;;;;19.74;54.87;101005.44;5034024;28;4747;-74
2023/06/24 05:09:22;;;;;;;;;;;;;;;19.67;54.91;101010.31;5027275;28;4880;-75
2023/06/24 05:12:14;;;;;;;;;;;;;;;19.66;55.01;101009.50;5031949;28;4523;-74
2023/06/24 05:15:07;;;;;;;;;;;;;;;19.69;54.90;101006.22;5026894;28;4925;-73
2023/06/24 05:17:58;;;;;;;;;;;;;;;19.70;54.82;101012.50;5017605;28;4426;-76
2023/06/24 05:20:50;;;;;;;;;;;;;;;19.62;55.16;101021.19;5020241;28;4888;-75
2023/06/24 05:23:42;;;;;;;;;;;;;;;19.59;55.01;101016.25;5037445;28;5332;-75
2023/06/24 05:26:34;;;;;;;;;;;;;;;19.67;54.52;101008.41;5037002;28;5674;-73
2023/06/24 05:29:26;;;;;;;;;;;;;;;19.62;54.92;101018.44;5039433;28;5680;-74
2023/06/24 05:32:20;;;;;;;;;;;;;;;19.60;54.87;101009.72;5036049;28;4922;-74
2023/06/24 05:35:11;;;;;;;;;;;;;;;19.59;54.98;101011.66;5038708;28;4602;-78
2023/06/24 05:38:02;;;;;;;;;;;;;;;19.65;54.79;101007.88;5027314;28;4913;-76
2023/06/24 05:40:54;;;;;;;;;;;;;;;19.63;54.71;101018.19;5036178;28;4687;-73
2023/06/24 05:43:46;;;;;;;;;;;;;;;19.60;54.87;101018.75;5030953;28;4869;-74
2023/06/24 05:46:38;;;;;;;;;;;;;;;19.54;55.08;101017.09;5029782;28;4836;-75
2023/06/24 05:49:30;;;;;;;;;;;;;;;19.56;54.90;101017.66;5029550;28;4604;-74
2023/06/24 05:52:22;;;;;;;;;;;;;;;19.18;54.85;100937.78;5034815;28;4604;-76
2023/06/24 05:55:14;;;;;;;;;;;;;;;19.57;54.74;101011.09;5014182;28;5221;-75
2023/06/24 05:58:07;;;;;;;;;;;;;;;19.55;54.67;101017.91;5028412;28;5470;-73
2023/06/24 06:01:01;;;;;;;;;;;;;;;19.54;54.55;101017.09;5029804;28;4955;-77
2023/06/24 06:03:52;;;;;;;;;;;;;;;19.54;54.87;101016.28;5026187;28;4726;-78
2023/06/24 06:06:44;;;;;;;;;;;;;;;19.57;54.45;101013.00;5019627;28;4651;-76
2023/06/24 06:09:36;;;;;;;;;;;;;;;19.53;54.64;101026.38;5014811;28;4853;-76
2023/06/24 06:12:28;;;;;;;;;;;;;;;19.52;54.64;101017.34;5016507;28;5460;-77
2023/06/24 06:15:20;;;;;;;;;;;;;;;19.50;54.54;101013.22;5019922;28;4746;-77
2023/06/24 06:18:12;;;;;;;;;;;;;;;19.51;54.72;101020.34;5028667;28;4883;-78
2023/06/24 06:21:04;;;;;;;;;;;;;;;19.48;54.64;101023.63;5031846;28;4644;-75
2023/06/24 06:23:56;;;;;;;;;;;;;;;19.47;54.87;101019.22;5036889;28;5483;-75
2023/06/24 06:26:48;;;;;;;;;;;;;;;19.46;54.73;101018.41;5031960;28;4971;-76
2023/06/24 06:29:40;;;;;;;;;;;;;;;19.46;55.04;101018.41;5029611;28;4622;-76
2023/06/24 06:32:32;;;;;;;;;;;;;;;19.47;54.52;101019.22;5017987;28;5314;-75
2023/06/24 06:35:24;;;;;;;;;;;;;;;19.48;54.58;101018.97;5026365;28;4721;-75
2023/06/24 06:38:16;;;;;;;;;;;;;;;19.49;54.82;101026.06;5033846;28;5665;-77
2023/06/24 06:41:08;;;;;;;;;;;;;;;19.50;54.81;101019.53;5028302;28;4770;-77
2023/06/24 06:44:00;;;;;;;;;;;;;;;19.49;54.45;101017.06;5025484;28;4923;-76
2023/06/24 06:46:52;;;;;;;;;;;;;;;19.47;54.52;101014.63;5025460;28;4635;-76
2023/06/24 06:49:44;;;;;;;;;;;;;;;19.48;54.58;101023.63;5029805;28;4420;-75
2023/06/24 06:52:38;;;;;;;;;;;;;;;19.49;54.51;101020.59;5027375;28;4722;-75
2023/06/24 06:55:29;;;;;;;;;;;;;;;19.49;54.33;101025.25;5032919;28;4493;-75
2023/06/24 06:58:21;;;;;;;;;;;;;;;19.48;54.48;101031.81;5027717;28;5131;-75
2023/06/24 07:01:13;;;;;;;;;;;;;;;19.48;54.39;101031.81;5028630;28;4772;-76
2023/06/24 07:04:05;;;;;;;;;;;;;;;19.49;54.63;101033.44;5023018;28;4705;-77
2023/06/24 07:06:57;;;;;;;;;;;;;;;19.47;54.50;101025.53;5020590;28;4603;-77
2023/06/24 07:09:49;;;;;;;;;;;;;;;19.49;54.64;101033.44;5021367;28;4541;-76
2023/06/24 07:12:41;;;;;;;;;;;;;;;19.48;54.36;101023.63;5020374;28;4580;-77
2023/06/24 07:15:33;;;;;;;;;;;;;;;19.47;54.48;101031.00;5020990;28;4368;-77
2023/06/24 07:18:30;;;;;;;;;;;;;;;19.47;54.65;101032.88;5019244;28;4508;-75
2023/06/24 07:21:22;;;;;;;;;;;;;;;19.48;54.35;101032.63;5021910;28;5279;-77
2023/06/24 07:24:13;;;;;;;;;;;;;;;19.48;54.67;101023.63;5020901;28;4378;-75
2023/06/24 07:27:05;;;;;;;;;;;;;;;19.47;54.60;101033.72;5026923;28;4788;-77
2023/06/24 07:29:57;;;;;;;;;;;;;;;19.47;54.24;101030.16;5027450;28;4699;-78
2023/06/24 07:32:49;;;;;;;;;;;;;;;19.48;54.21;101031.81;5024650;28;4864;-76
2023/06/24 07:35:41;;;;;;;;;;;;;;;19.47;54.26;101036.47;5021983;28;5522;-76
2023/06/24 07:38:33;;;;;;;;;;;;;;;19.47;54.23;101036.47;5022608;28;4574;-76
2023/06/24 07:41:26;;;;;;;;;;;;;;;19.48;54.13;101029.91;5024460;28;4302;-75
2023/06/24 07:44:18;;;;;;;;;;;;;;;19.47;54.13;101035.63;5028546;28;4470;-77
2023/06/24 07:47:10;;;;;;;;;;;;;;;19.47;54.18;101036.47;5030025;28;4479;-75
2023/06/24 07:50:02;;;;;;;;;;;;;;;19.48;54.22;101035.38;5028059;28;4474;-76
2023/06/24 07:52:54;;;;;;;;;;;;;;;19.48;54.45;101026.34;5029496;28;4546;-76
2023/06/24 07:55:46;;;;;;;;;;;;;;;19.48;54.45;101034.53;5026539;28;4715;-76
2023/06/24 07:58:38;;;;;;;;;;;;;;;19.48;54.11;101034.53;5034465;28;4467;-77
2023/06/24 08:01:30;;;;;;;;;;;;;;;19.49;54.38;101034.25;5034850;28;4479;-74
2023/06/24 08:04:22;;;;;;;;;;;;;;;19.49;54.11;101030.72;5032791;28;4777;-75
2023/06/24 08:07:15;;;;;;;;;;;;;;;19.48;54.00;101029.91;5035709;28;5783;-76
2023/06/24 08:10:06;;;;;;;;;;;;;;;19.48;54.28;101027.16;5034465;28;5247;-76
2023/06/24 08:12:58;;;;;;;;;;;;;;;19.51;54.36;101034.00;5039992;28;4640;-77
2023/06/24 08:15:50;;;;;;;;;;;;;;;19.49;54.36;101030.72;5034864;28;5179;-76
2023/06/24 08:18:46;;;;;;;;;;;;;;;19.49;54.42;101030.72;5032546;28;4901;-75
2023/06/24 08:21:37;;;;;;;;;;;;;;;19.49;54.19;101028.81;5032348;28;4429;-76
2023/06/24 08:24:29;;;;;;;;;;;;;;;19.49;54.06;101020.59;5038096;28;4493;-75
2023/06/24 08:27:22;;;;;;;;;;;;;;;19.50;53.92;101026.88;5033451;28;4535;-77
2023/06/24 08:30:13;;;;;;;;;;;;;;;19.50;54.24;101026.88;5040968;28;4772;-77
2023/06/24 08:33:05;;;;;;;;;;;;;;;19.51;53.82;101028.56;5040406;28;4639;-76
2023/06/24 08:35:57;;;;;;;;;;;;;;;19.51;54.20;101031.28;5039172;28;4358;-75
2023/06/24 08:38:49;;;;;;;;;;;;;;;19.52;53.99;101032.91;5039643;28;4824;-75
2023/06/24 08:41:41;;;;;;;;;;;;;;;19.52;53.75;101038.38;5038911;28;4998;-76
2023/06/24 08:44:33;;;;;;;;;;;;;;;19.52;53.83;101028.25;5037807;28;4893;-76
2023/06/24 08:47:25;;;;;;;;;;;;;;;19.53;54.00;101026.38;5039015;28;4536;-76
2023/06/24 08:50:17;;;;;;;;;;;;;;;19.55;54.08;101037.03;5039166;28;4767;-76
2023/06/24 08:53:09;;;;;;;;;;;;;;;19.55;53.96;101037.03;5038522;28;4865;-79
2023/06/24 08:56:01;;;;;;;;;;;;;;;19.55;53.89;101039.75;5040891;28;4901;-76
2023/06/24 08:58:52;;;;;;;;;;;;;;;19.55;53.73;101040.56;5032705;28;5494;-76
2023/06/24 09:01:44;;;;;;;;;;;;;;;19.55;53.97;101029.66;5029441;28;4471;-76
2023/06/24 09:04:39;;;;;;;;;;;;;;;19.56;54.03;101030.47;5029223;28;5397;-76
2023/06/24 09:07:32;;;;;;;;;;;;;;;19.55;54.15;101042.47;5035462;28;4816;-76
2023/06/24 09:10:23;;;;;;;;;;;;;;;19.55;53.91;101039.75;5036307;28;4695;-76
2023/06/24 09:13:14;;;;;;;;;;;;;;;19.55;54.06;101040.56;5030879;28;4663;-75
2023/06/24 09:16:06;;;;;;;;;;;;;;;19.56;54.01;101028.56;5029071;28;5207;-74
2023/06/24 09:18:59;;;;;;;;;;;;;;;19.56;54.02;101033.19;5031516;28;4501;-76
2023/06/24 09:21:52;;;;;;;;;;;;;;;19.57;53.90;101037.59;5028856;28;4462;-75
2023/06/24 09:24:46;;;;;;;;;;;;;;;19.57;54.01;101040.31;5020179;28;4822;-78
2023/06/24 09:27:37;;;;;;;;;;;;;;;19.57;54.26;101035.66;5028113;28;4757;-77
2023/06/24 09:30:28;;;;;;;;;;;;;;;19.57;54.09;101040.31;5026601;28;5431;-74
2023/06/24 09:33:20;;;;;;;;;;;;;;;19.58;54.28;101110.25;5020781;28;4472;-74
2023/06/24 09:36:12;;;;;;;;;;;;;;;19.59;54.31;101036.22;5018706;28;5276;-75
2023/06/24 09:39:04;;;;;;;;;;;;;;;19.59;54.39;101032.66;5029957;28;5613;-77
2023/06/24 09:41:56;;;;;;;;;;;;;;;19.59;54.44;101035.38;5018980;28;4727;-78
2023/06/24 09:44:48;;;;;;;;;;;;;;;19.60;54.32;101031.59;5022451;28;5375;-77
2023/06/24 09:47:40;;;;;;;;;;;;;;;19.59;54.12;101027.19;5017799;28;4948;-76
2023/06/24 09:50:32;;;;;;;;;;;;;;;19.60;54.32;101026.94;5020676;28;4451;-76
2023/06/24 09:53:24;;;;;;;;;;;;;;;19.60;54.25;101032.41;5023689;28;5157;-76
2023/06/24 09:56:16;;;;;;;;;;;;;;;19.59;54.17;101033.50;5017287;28;4473;-76
2023/06/24 09:59:08;;;;;;;;;;;;;;;19.60;54.33;101035.13;5019425;28;4656;-77
2023/06/24 10:02:00;;;;;;;;;;;;;;;19.61;54.61;101033.22;5017084;28;4948;-78
2023/06/24 10:04:52;;;;;;;;;;;;;;;19.63;54.43;101033.78;5027824;28;4524;-79
2023/06/24 10:07:44;;;;;;;;;;;;;;;19.62;54.67;101026.66;5019517;28;4455;-76
2023/06/24 10:10:36;;;;;;;;;;;;;;;19.62;54.52;101026.66;5020154;28;4858;-77
2023/06/24 10:13:27;;;;;;;;;;;;;;;19.63;54.81;101023.66;5025229;28;4509;-77
2023/06/24 10:16:19;;;;;;;;;;;;;;;19.64;54.73;101021.75;5029426;28;4659;-78
2023/06/24 10:19:11;;;;;;;;;;;;;;;19.64;54.76;101019.03;5026030;28;5341;-76
2023/06/24 10:22:03;;;;;;;;;;;;;;;19.65;54.78;101023.44;5018872;28;4897;-76
2023/06/24 10:24:56;;;;;;;;;;;;;;;19.65;54.78;101015.25;5025697;28;5516;-76
2023/06/24 10:27:48;;;;;;;;;;;;;;;19.67;54.52;101013.03;5021077;28;4640;-77
2023/06/24 10:30:39;;;;;;;;;;;;;;;19.67;54.48;101019.31;5016715;28;5024;-75
2023/06/24 10:33:32;;;;;;;;;;;;;;;19.67;54.42;101013.88;5017336;28;4749;-77
2023/06/24 10:36:24;;;;;;;;;;;;;;;19.69;54.38;101008.13;5018466;28;5213;-76
2023/06/24 10:39:16;;;;;;;;;;;;;;;19.68;54.70;101012.78;5015899;28;4826;-78
2023/06/24 10:42:07;;;;;;;;;;;;;;;19.71;54.41;101011.44;5015601;28;4763;-76
2023/06/24 10:45:00;;;;;;;;;;;;;;;19.71;54.19;101006.78;5015558;28;4511;-77
2023/06/24 10:47:52;;;;;;;;;;;;;;;19.70;54.16;101004.31;5013591;28;4294;-78
2023/06/24 10:50:44;;;;;;;;;;;;;;;19.71;54.31;101000.50;5018724;28;5135;-76
2023/06/24 10:53:36;;;;;;;;;;;;;;;19.72;54.71;101002.13;5016827;28;4829;-76
2023/06/24 10:56:28;;;;;;;;;;;;;;;19.73;54.48;101001.03;5026664;28;4848;-77
2023/06/24 10:59:20;;;;;;;;;;;;;;;19.73;54.39;101001.84;5016755;28;5175;-76
2023/06/24 11:02:13;;;;;;;;;;;;;;;19.75;54.57;101007.06;5019090;28;4677;-79
2023/06/24 11:05:05;;;;;;;;;;;;;;;19.75;54.83;101004.31;5019341;28;5052;-75
2023/06/24 11:07:57;;;;;;;;;;;;;;;19.76;54.67;100999.69;5016612;28;4925;-76
2023/06/24 11:10:48;;;;;;;;;;;;;;;19.77;54.73;100999.41;5023235;28;5136;-76
2023/06/24 11:13:40;;;;;;;;;;;;;;;19.78;54.93;101002.97;5016746;28;4690;-75
2023/06/24 11:16:33;;;;;;;;;;;;;;;19.78;54.79;101006.53;5015376;28;4647;-76
2023/06/24 11:19:24;;;;;;;;;;;;;;;19.79;54.88;101005.41;5019230;28;4476;-75
2023/06/24 11:22:17;;;;;;;;;;;;;;;19.80;54.76;101001.63;5015510;28;4964;-77
2023/06/24 11:25:08;;;;;;;;;;;;;;;19.81;54.81;101002.44;5018963;28;4844;-75
2023/06/24 11:28:01;;;;;;;;;;;;;;;19.82;54.43;100999.41;5022713;28;4489;-76
2023/06/24 11:30:53;;;;;;;;;;;;;;;19.83;54.80;101003.00;5015641;28;4521;-75
2023/06/24 11:33:44;;;;;;;;;;;;;;;19.84;54.99;100999.97;5033521;28;5406;-77
2023/06/24 11:36:35;;;;;;;;;;;;;;;19.85;54.64;100998.06;5035540;28;4795;-78
2023/06/24 11:39:28;;;;;;;;;;;;;;;19.86;54.58;100996.97;5037949;28;4711;-76
2023/06/24 11:42:19;;;;;;;;;;;;;;;19.88;55.00;100997.50;5038198;28;4649;-78
2023/06/24 11:45:12;;;;;;;;;;;;;;;19.92;54.88;100998.63;5034997;28;4852;-72
2023/06/24 11:48:04;;;;;;;;;;;;;;;19.98;54.70;100997.53;5031750;28;4650;-76
2023/06/24 11:50:55;;;;;;;;;;;;;;;19.94;54.76;100986.34;5028414;28;4471;-79
2023/06/24 11:53:48;;;;;;;;;;;;;;;19.93;54.61;100986.59;5026875;28;4462;-75
2023/06/24 11:56:39;;;;;;;;;;;;;;;19.93;54.62;100992.88;5026310;28;4448;-76
2023/06/24 11:59:31;;;;;;;;;;;;;;;19.94;54.56;100991.81;5028926;28;4454;-76
2023/06/24 12:02:24;;;;;;;;;;;;;;;19.95;54.66;100989.88;5021661;28;4241;-77
2023/06/24 12:05:16;;;;;;;;;;;;;;;19.56;54.78;100930.22;5016750;28;4088;-75
2023/06/24 12:08:08;;;;;;;;;;;;;;;19.98;54.90;100983.88;5025749;28;4719;-77
2023/06/24 12:11:00;;;;;;;;;;;;;;;19.99;54.73;100990.97;5021751;28;4674;-77
2023/06/24 12:13:52;;;;;;;;;;;;;;;20.02;54.73;100986.88;5023803;28;4820;-77
2023/06/24 12:16:44;;;;;;;;;;;;;;;20.01;55.16;100986.06;5023584;28;4914;-75
2023/06/24 12:19:36;;;;;;;;;;;;;;;20.03;54.95;100988.50;5022382;28;4840;-76
2023/06/24 12:22:28;;;;;;;;;;;;;;;20.04;55.08;100985.50;5022911;28;4718;-78
2023/06/24 12:25:20;;;;;;;;;;;;;;;20.05;54.81;100994.53;5031711;28;5154;-77
2023/06/24 12:28:12;;;;;;;;;;;;;;;20.06;55.15;100988.81;5023169;28;5150;-76
2023/06/24 12:31:05;;;;;;;;;;;;;;;20.08;55.28;100986.59;5020555;28;4757;-77
2023/06/24 12:33:57;;;;;;;;;;;;;;;20.09;55.10;100981.94;5027920;28;4642;-75
2023/06/24 12:36:49;;;;;;;;;;;;;;;20.10;55.12;100989.88;5020553;28;4603;-74
2023/06/24 12:39:40;;;;;;;;;;;;;;;20.11;55.58;100993.44;5027814;28;4547;-77
2023/06/24 12:42:33;;;;;;;;;;;;;;;20.11;55.19;100986.06;5027211;28;4825;-77
2023/06/24 12:45:24;;;;;;;;;;;;;;;20.11;55.36;100982.50;5020307;28;4466;-76
2023/06/24 12:48:17;;;;;;;;;;;;;;;20.14;55.21;100984.69;5027163;28;4618;-77
2023/06/24 12:51:09;;;;;;;;;;;;;;;20.14;55.49;100984.69;5013021;28;4920;-77
2023/06/24 12:54:00;;;;;;;;;;;;;;;20.16;55.31;100985.25;5003916;28;4345;-77
2023/06/24 12:56:53;;;;;;;;;;;;;;;20.17;55.12;100976.75;5010726;28;5216;-76
2023/06/24 12:59:45;;;;;;;;;;;;;;;20.19;55.37;100979.22;5007683;28;4736;-78
2023/06/24 13:02:37;;;;;;;;;;;;;;;20.20;55.51;100978.13;5024180;28;4562;-76
2023/06/24 13:05:28;;;;;;;;;;;;;;;20.21;55.54;100982.53;5011304;28;4707;-79
2023/06/24 13:08:21;;;;;;;;;;;;;;;20.23;55.24;100982.22;5009213;28;4724;-77
2023/06/24 13:11:13;;;;;;;;;;;;;;;20.23;55.32;100979.50;5013845;28;5065;-77
2023/06/24 13:14:04;;;;;;;;;;;;;;;20.26;55.26;100981.69;5011815;28;4260;-77
2023/06/24 13:16:56;;;;;;;;;;;;;;;20.27;55.41;100975.94;5017759;28;4860;-77
2023/06/24 13:19:49;;;;;;;;;;;;;;;20.29;55.32;100976.47;5013308;28;4513;-77
2023/06/24 13:22:41;;;;;;;;;;;;;;;20.32;55.69;100983.31;5013020;28;4787;-77
2023/06/24 13:25:33;;;;;;;;;;;;;;;20.31;55.57;100985.25;5017296;28;4667;-75
2023/06/24 13:28:25;;;;;;;;;;;;;;;20.33;55.76;100972.13;5014119;28;4473;-79
2023/06/24 13:31:16;;;;;;;;;;;;;;;20.35;55.53;100974.56;5022830;28;5590;-76
2023/06/24 13:34:08;;;;;;;;;;;;;;;20.37;55.51;100978.66;5013977;28;4325;-76
2023/06/24 13:37:01;;;;;;;;;;;;;;;20.39;55.73;100972.94;5016736;28;3912;-77
2023/06/24 13:39:53;;;;;;;;;;;;;;;20.39;55.73;100981.16;5016222;28;5233;-76
2023/06/24 13:42:44;;;;;;;;;;;;;;;20.40;55.85;100975.38;5019830;28;4471;-77
2023/06/24 13:45:36;;;;;;;;;;;;;;;20.43;55.77;100977.56;5016154;28;4563;-76
2023/06/24 13:48:28;;;;;;;;;;;;;;;20.46;55.84;100980.84;5017810;28;4756;-78
2023/06/24 13:51:20;;;;;;;;;;;;;;;20.46;56.18;100978.94;5029136;28;4367;-79
2023/06/24 13:54:11;;;;;;;;;;;;;;;20.47;56.03;100974.28;5022370;28;4318;-76
2023/06/24 13:57:03;;;;;;;;;;;;;;;20.49;56.06;100977.56;5019270;28;4753;-78
2023/06/24 13:59:55;;;;;;;;;;;;;;;20.51;56.28;100973.47;5026122;28;5317;-78
2023/06/24 14:02:46;;;;;;;;;;;;;;;20.52;56.05;100975.13;5030432;28;5529;-75
2023/06/24 14:05:39;;;;;;;;;;;;;;;20.53;56.00;100979.53;5027763;28;5589;-76
2023/06/24 14:08:32;;;;;;;;;;;;;;;20.55;56.19;100971.03;5034887;28;4547;-78
2023/06/24 14:11:23;;;;;;;;;;;;;;;20.56;56.23;100980.84;5030918;28;4743;-76
2023/06/24 14:14:15;;;;;;;;;;;;;;;20.59;56.14;100975.69;5029703;28;4335;-77
2023/06/24 14:17:09;;;;;;;;;;;;;;;20.60;56.31;100976.50;5031115;28;4537;-78
2023/06/24 14:20:03;;;;;;;;;;;;;;;20.62;56.25;100971.56;5031573;28;4531;-77
2023/06/24 14:22:54;;;;;;;;;;;;;;;20.64;56.18;100969.34;5031854;28;4461;-77
2023/06/24 14:25:47;;;;;;;;;;;;;;;20.64;56.55;100969.34;5039132;28;4539;-76
2023/06/24 14:28:39;;;;;;;;;;;;;;;20.67;56.20;100968.00;5034969;28;5320;-76
2023/06/24 14:31:31;;;;;;;;;;;;;;;20.68;56.53;100969.63;5026273;28;4389;-76
2023/06/24 14:34:23;;;;;;;;;;;;;;;20.70;56.39;100962.78;5026348;28;4532;-76
2023/06/24 14:37:15;;;;;;;;;;;;;;;20.72;56.39;100959.78;5033921;28;4730;-75
2023/06/24 14:40:07;;;;;;;;;;;;;;;20.74;56.50;100960.31;5016907;28;5405;-75
2023/06/24 14:42:59;;;;;;;;;;;;;;;20.75;56.47;100964.69;5013085;28;5299;-77
2023/06/24 14:45:51;;;;;;;;;;;;;;;20.76;56.54;100963.59;5014558;28;5104;-75
2023/06/24 14:48:43;;;;;;;;;;;;;;;20.78;56.39;100964.94;5016434;28;4484;-76
2023/06/24 14:51:35;;;;;;;;;;;;;;;20.80;56.66;100959.22;4976770;28;4549;-75
2023/06/24 14:54:27;;;;;;;;;;;;;;;20.83;56.77;100966.88;4987101;28;4540;-76
2023/06/24 14:57:19;;;;;;;;;;;;;;;20.83;56.77;100959.47;4989367;28;4460;-77